Terminal Aerodrome Forecast
Issued by NWS

Home | Current Version | Previous Version | Text Only | Print | Product List | Glossary On
Versions: 1 2 3 4 5 6 7 8 9 10 11 12 13 14 15 16 17 18 19 20 21 22 23 24 25 26 27 28 29 30 31 32 33 34 35 36 37 38 39 40
842
FTUS43 KDVN 262305 AAC
TAFCID
TAF AMD
KCID 262305Z 2623/2718 29007KT 6SM BR OVC008
     FM270200 32005KT 3SM BR OVC004
     FM270400 33004KT 1SM BR OVC003
     FM271500 01007KT 3SM BR VCSH OVC008=

USA.gov is the U.S. government's official web portal to all federal, state and local government web resources and services.